Weather History for Hurlburt Field, FL

Change the Weather History Date:

Saturday, November 16, 2013

  Actual Average Record
Temperature  
Mean Temperature 66 °F -  
Max Temperature 71 °F 68 °F 80 °F (2003)
Min Temperature 60 °F 49 °F 33 °F (1997)
Growing Degree Days 16 (Base 50)    
Moisture  
Dew Point 61 °F    
Average Humidity 82    
Maximum Humidity 90    
Minimum Humidity 68    
Precipitation  
Precipitation 0.00 in - - ()
Sea Level Pressure  
Sea Level Pressure 30.07 in    
Wind  
Wind Speed 9 mph (ESE)    
Max Wind Speed 14 mph    
Max Gust Speed 20 mph    
Visibility 10 miles    
Events Rain    
Averages and records for this station are not official NWS values.
T = Trace of Precipitation, MM = Missing Value Source: NWS Daily Summary

Daily Weather History Graph

Daily Weather History Graph

Search for Another Location

Airport:

Trip Planner

Search our weather history database for the weather conditions in past years. The results will help you decide how hot, cold, wet, or windy it might be!

Date:

Astronomy

Nov. 16, 2013 Rise Set
Actual Time 6:13 AM CST 4:49 PM CST
Civil Twilight 5:48 AM CST 5:14 PM CST
Nautical Twilight 5:19 AM CST 5:43 PM CST
Astronomical Twilight 4:50 AM CST 6:12 PM CST
Moon 4:21 PM CST (11/16) 5:13 AM CST (11/16)
Length of Visible Light 11h 26m
Length of Day
10h 35m
Waxing Gibbous, 99% of the Moon is Illuminated
Nov 16
Waxing Gibbous
Nov 17
Full
Nov 25
Last Quarter
Dec 2
New
Dec 9
First Quarter

Hourly Weather History & Observations

Time (CST) Temp. Dew Point Humidity Pressure Visibility Wind Dir Wind Speed Gust Speed Precip Events Conditions
12:58 AM 61.2 °F 57.7 °F 88% 30.08 in 10.0 mi ENE 8.1 mph - N/A   Scattered Clouds
1:43 AM 60.8 °F 57.2 °F 88% 30.07 in 10.0 mi East 8.1 mph - N/A   Mostly Cloudy
1:53 AM 60.8 °F 57.2 °F 88% 30.07 in 10.0 mi East 8.1 mph - N/A   Overcast
1:58 AM 60.8 °F 57.9 °F 90% 30.08 in 10.0 mi ENE 5.8 mph - N/A   Overcast
2:13 AM 60.8 °F 57.2 °F 88% 30.07 in 10.0 mi ENE 8.1 mph - N/A   Overcast
2:18 AM 60.8 °F 57.2 °F 88% 30.07 in 10.0 mi ENE 6.9 mph - N/A   Mostly Cloudy
2:58 AM 61.0 °F 57.7 °F 89% 30.08 in 10.0 mi East 9.2 mph - N/A   Mostly Cloudy
3:08 AM 60.8 °F 57.2 °F 88% 30.07 in 10.0 mi East 8.1 mph - N/A   Mostly Cloudy
3:38 AM 60.8 °F 57.2 °F 88% 30.07 in 10.0 mi East 10.4 mph - N/A   Overcast
3:58 AM 60.4 °F 57.6 °F 90% 30.08 in 10.0 mi East 9.2 mph - N/A   Overcast
4:58 AM 60.3 °F 57.4 °F 90% 30.07 in 10.0 mi East 6.9 mph - N/A   Overcast
5:58 AM 60.4 °F 57.2 °F 89% 30.09 in 10.0 mi ENE 8.1 mph - N/A   Overcast
6:33 AM 60.8 °F 57.2 °F 88% 30.08 in 10.0 mi East 8.1 mph - N/A   Overcast
6:58 AM 60.4 °F 57.6 °F 90% 30.10 in 10.0 mi East 10.4 mph - N/A   Overcast
7:48 AM 60.8 °F 57.2 °F 88% 30.10 in 10.0 mi East 10.4 mph - N/A   Overcast
7:58 AM 61.5 °F 57.9 °F 88% 30.11 in 10.0 mi East 8.1 mph - N/A   Overcast
7:59 AM 60.8 °F 57.2 °F 88% 30.10 in 10.0 mi East 10.4 mph - N/A Rain Light Rain
8:10 AM 62.6 °F 59.0 °F 88% 30.10 in 10.0 mi East 9.2 mph - N/A   Overcast
8:50 AM 64.4 °F 59.0 °F 83% 30.11 in 10.0 mi East 11.5 mph - N/A   Mostly Cloudy
8:58 AM 64.8 °F 58.5 °F 80% 30.12 in 10.0 mi East 10.4 mph - 0.00 in   Mostly Cloudy
9:53 AM 68.0 °F 59.0 °F 73% 30.11 in 10.0 mi East 10.4 mph - N/A   Mostly Cloudy
9:58 AM 68.9 °F 59.7 °F 72% 30.12 in 10.0 mi East 8.1 mph - N/A   Mostly Cloudy
10:02 AM 68.0 °F 59.0 °F 73% 30.11 in 10.0 mi East 10.4 mph - N/A   Light Drizzle
10:11 AM 69.8 °F 59.0 °F 68% 30.11 in 10.0 mi East 10.4 mph - N/A   Overcast
10:26 AM 69.8 °F 60.8 °F 73% 30.10 in 10.0 mi ESE 9.2 mph - N/A   Overcast
10:58 AM 69.3 °F 59.9 °F 72% 30.10 in 10.0 mi East 9.2 mph - 0.00 in   Overcast
11:08 AM 69.8 °F 60.8 °F 73% 30.09 in 10.0 mi ESE 8.1 mph - N/A   Overcast
11:58 AM 71.8 °F 61.5 °F 70% 30.08 in 10.0 mi SE 10.4 mph - N/A   Mostly Cloudy
12:58 PM 71.4 °F 62.1 °F 72% 30.07 in 10.0 mi SE 10.4 mph - N/A   Mostly Cloudy
1:38 PM 71.6 °F 62.6 °F 73% 30.05 in 10.0 mi ESE 10.4 mph - N/A   Overcast
1:58 PM 70.7 °F 62.4 °F 75% 30.05 in 10.0 mi ESE 10.4 mph - N/A   Overcast
2:08 PM 71.6 °F 62.6 °F 73% 30.04 in 10.0 mi ESE 9.2 mph - N/A   Overcast
2:53 PM 71.6 °F 62.6 °F 73% 30.03 in 10.0 mi ESE 11.5 mph 18.4 mph N/A Rain Light Rain
2:58 PM 71.1 °F 61.7 °F 72% 30.04 in 10.0 mi ESE 12.7 mph 18.4 mph 0.00 in Rain Light Rain
3:05 PM 71.6 °F 62.6 °F 73% 30.02 in 10.0 mi ESE 10.4 mph - N/A   Overcast
3:08 PM 71.6 °F 62.6 °F 73% 30.02 in 10.0 mi ESE 10.4 mph - N/A Rain Light Rain
3:11 PM 71.6 °F 62.6 °F 73% 30.02 in 10.0 mi ESE 10.4 mph - N/A   Overcast
3:58 PM 70.7 °F 63.0 °F 76% 30.03 in 10.0 mi SE 6.9 mph - 0.00 in   Mostly Cloudy
4:58 PM 69.1 °F 62.8 °F 80% 30.04 in 10.0 mi ESE 5.8 mph - N/A   Partly Cloudy
5:58 PM 69.4 °F 63.7 °F 82% 30.05 in 10.0 mi ESE 5.8 mph - N/A   Overcast
6:58 PM 69.3 °F 63.7 °F 82% 30.06 in 10.0 mi ESE 9.2 mph - N/A   Scattered Clouds
7:23 PM 69.8 °F 62.6 °F 78% 30.06 in 10.0 mi ESE 10.4 mph - N/A   Overcast
7:58 PM 69.8 °F 62.6 °F 78% 30.07 in 10.0 mi ESE 11.5 mph 19.6 mph N/A   Overcast
8:58 PM 69.8 °F 62.8 °F 78% 30.08 in 10.0 mi ESE 12.7 mph 19.6 mph N/A   Overcast
9:23 PM 69.8 °F 62.6 °F 78% 30.06 in 10.0 mi ESE 13.8 mph - N/A   Overcast
9:48 PM 68.0 °F 64.4 °F 88% 30.05 in 8.0 mi ESE 11.5 mph - N/A   Overcast
9:58 PM 68.0 °F 64.4 °F 88% 30.06 in 9.0 mi ESE 10.4 mph - N/A   Overcast
10:03 PM 68.0 °F 64.4 °F 88% 30.05 in 10.0 mi ESE 11.5 mph 19.6 mph N/A   Overcast
10:53 PM 68.0 °F 64.4 °F 88% 30.04 in 10.0 mi ESE 12.7 mph - N/A   Overcast
10:58 PM 68.4 °F 64.6 °F 88% 30.05 in 10.0 mi ESE 12.7 mph - N/A   Overcast
11:13 PM 68.0 °F 64.4 °F 88% 30.04 in 10.0 mi ESE 12.7 mph - N/A   Overcast
11:38 PM 68.0 °F 64.4 °F 88% 30.03 in 9.0 mi ESE 12.7 mph - N/A   Overcast
11:43 PM 68.0 °F 64.4 °F 88% 30.02 in 8.0 mi ESE 13.8 mph - N/A   Overcast
11:44 PM 68.0 °F 64.4 °F 88% 30.02 in 7.0 mi ESE 10.4 mph - N/A   Light Drizzle
11:54 PM 68.0 °F 64.4 °F 88% 30.02 in 5.0 mi ESE 13.8 mph - N/A   Light Drizzle
11:58 PM 68.0 °F 65.1 °F 90% 30.03 in 5.0 mi ESE 12.7 mph - 0.00 in   Light Drizzle